createdAt,value
2022-12-18T00:01:38.435Z,16.57
2022-12-18T00:04:07.187Z,16.90
2022-12-18T00:06:35.477Z,17.10
2022-12-18T00:09:03.738Z,17.13
2022-12-18T00:11:31.932Z,16.90
2022-12-18T00:14:00.034Z,16.43
2022-12-18T00:16:28.680Z,15.87
2022-12-18T00:19:01.000Z,18.13
2022-12-18T00:21:29.290Z,15.67
2022-12-18T00:23:56.221Z,15.37
2022-12-18T00:26:41.058Z,16.73
2022-12-18T00:29:12.179Z,15.07
2022-12-18T00:31:39.161Z,13.70
2022-12-18T00:34:06.928Z,17.00
2022-12-18T00:36:35.050Z,15.83
2022-12-18T00:39:04.338Z,15.40
2022-12-18T00:41:49.720Z,14.37
2022-12-18T00:44:18.285Z,13.67
2022-12-18T00:46:46.852Z,14.27
2022-12-18T00:49:13.942Z,17.30
2022-12-18T00:51:40.745Z,15.30
2022-12-18T00:54:07.562Z,13.10
2022-12-18T00:56:39.391Z,13.83
2022-12-18T00:59:13.126Z,12.00
2022-12-18T01:01:39.958Z,12.97
2022-12-18T01:04:07.111Z,14.57
2022-12-18T01:06:35.083Z,12.67
2022-12-18T01:09:02.303Z,14.17
2022-12-18T01:11:29.026Z,16.87
2022-12-18T01:13:56.167Z,16.17
2022-12-18T01:16:28.479Z,12.80
2022-12-18T01:18:57.108Z,12.83
2022-12-18T01:21:26.302Z,14.13
2022-12-18T01:23:56.598Z,14.50
2022-12-18T01:26:25.328Z,15.07
2022-12-18T01:28:52.355Z,16.13
2022-12-18T01:31:26.038Z,13.30
2022-12-18T01:33:53.720Z,16.27
2022-12-18T01:36:24.077Z,14.07
2022-12-18T01:38:51.051Z,11.10
2022-12-18T01:41:52.914Z,11.63
2022-12-18T01:44:57.044Z,15.10
2022-12-18T01:47:24.536Z,13.77
2022-12-18T01:49:51.702Z,10.93
2022-12-18T01:52:19.660Z,13.50
2022-12-18T01:54:47.358Z,13.40
2022-12-18T01:57:14.358Z,16.33
2022-12-18T01:59:44.284Z,16.53
2022-12-18T02:02:11.100Z,11.67
2022-12-18T02:04:37.871Z,11.37
2022-12-18T02:07:16.898Z,12.40
2022-12-18T02:09:56.237Z,15.07
2022-12-18T02:12:25.523Z,12.30
2022-12-18T02:15:15.031Z,16.87
2022-12-18T02:17:54.222Z,12.83
2022-12-18T02:20:46.264Z,13.60
2022-12-18T02:23:38.389Z,12.47
2022-12-18T02:26:17.095Z,13.30
2022-12-18T02:28:59.777Z,13.80
2022-12-18T02:31:34.695Z,14.20
2022-12-18T02:34:03.633Z,10.73
2022-12-18T02:36:41.482Z,11.30
2022-12-18T02:39:11.556Z,12.57
2022-12-18T02:41:43.806Z,11.17
2022-12-18T02:44:13.149Z,11.83
2022-12-18T02:47:06.800Z,14.40
2022-12-18T02:49:52.408Z,11.80
2022-12-18T02:52:28.231Z,10.90
2022-12-18T02:54:58.967Z,10.97
2022-12-18T02:57:37.666Z,13.50
2022-12-18T03:00:12.619Z,13.40
2022-12-18T03:02:47.219Z,11.70
2022-12-18T03:05:31.083Z,11.97
2022-12-18T03:08:11.172Z,13.43
2022-12-18T03:10:47.810Z,13.37
2022-12-18T03:13:41.275Z,11.47
2022-12-18T03:16:13.218Z,10.20
2022-12-18T03:18:59.740Z,11.67
2022-12-18T03:21:31.346Z,11.03
2022-12-18T03:23:59.123Z,11.77
2022-12-18T03:26:28.815Z,11.30
2022-12-18T03:29:17.543Z,9.43
2022-12-18T03:31:50.072Z,10.67
2022-12-18T03:34:22.758Z,10.83
2022-12-18T03:36:49.582Z,13.70
2022-12-18T03:39:16.756Z,9.13
2022-12-18T03:42:00.453Z,11.73
2022-12-18T03:44:43.010Z,10.03
2022-12-18T03:47:14.396Z,10.30
2022-12-18T03:50:12.948Z,11.63
2022-12-18T03:53:01.275Z,9.33
2022-12-18T03:55:33.682Z,10.93
2022-12-18T03:58:06.835Z,10.73
2022-12-18T04:00:46.631Z,9.87
2022-12-18T04:03:14.849Z,11.60
2022-12-18T04:05:51.320Z,9.90
2022-12-18T04:08:21.588Z,10.77
2022-12-18T04:10:56.916Z,13.03
2022-12-18T04:13:25.934Z,11.53
2022-12-18T04:15:53.167Z,8.90
2022-12-18T04:18:23.078Z,11.40
2022-12-18T04:20:50.120Z,10.07
2022-12-18T04:23:17.691Z,9.20
2022-12-18T04:25:44.590Z,10.53
2022-12-18T04:28:17.252Z,9.03
2022-12-18T04:30:44.053Z,10.00
2022-12-18T04:33:17.511Z,9.07
2022-12-18T04:35:44.263Z,10.37
2022-12-18T04:38:11.192Z,12.60
2022-12-18T04:40:39.311Z,9.43
2022-12-18T04:43:15.055Z,12.30
2022-12-18T04:45:41.720Z,12.50
2022-12-18T04:48:08.347Z,12.00
2022-12-18T04:50:34.988Z,8.63
2022-12-18T04:53:01.729Z,9.83
2022-12-18T04:55:28.564Z,11.97
2022-12-18T04:57:55.423Z,10.10
2022-12-18T05:00:22.919Z,11.10
2022-12-18T05:02:49.609Z,9.23
2022-12-18T05:05:16.318Z,10.23
2022-12-18T05:07:43.022Z,11.07
2022-12-18T05:10:10.519Z,10.17
2022-12-18T05:12:57.194Z,10.33
2022-12-18T05:15:23.794Z,12.23
2022-12-18T05:17:50.450Z,9.70
2022-12-18T05:20:17.216Z,11.67
2022-12-18T05:22:43.820Z,10.30
2022-12-18T05:25:10.413Z,10.13
2022-12-18T05:27:39.948Z,9.67
2022-12-18T05:30:07.191Z,11.93
2022-12-18T05:32:33.862Z,16.13
2022-12-18T05:35:00.557Z,10.70
2022-12-18T05:37:27.224Z,11.87
2022-12-18T05:39:53.849Z,9.80
2022-12-18T05:42:20.413Z,10.03
2022-12-18T05:44:47.009Z,10.77
2022-12-18T05:47:13.651Z,11.33
2022-12-18T05:49:40.463Z,12.23
2022-12-18T05:52:07.110Z,10.30
2022-12-18T05:54:33.870Z,11.07
2022-12-18T05:57:00.455Z,12.50
2022-12-18T05:59:27.093Z,12.67
2022-12-18T06:01:53.899Z,11.67
2022-12-18T06:04:20.539Z,11.13
2022-12-18T06:06:47.114Z,10.23
2022-12-18T06:09:13.759Z,11.47
2022-12-18T06:11:40.408Z,12.87
2022-12-18T06:14:10.273Z,11.43
2022-12-18T06:16:36.993Z,10.57
2022-12-18T06:19:06.067Z,13.37
2022-12-18T06:21:33.397Z,10.87
2022-12-18T06:24:01.183Z,15.57
2022-12-18T06:26:28.696Z,12.87
2022-12-18T06:28:55.511Z,12.57
2022-12-18T06:31:22.169Z,11.47
2022-12-18T06:33:48.804Z,11.20
2022-12-18T06:36:15.781Z,12.73
2022-12-18T06:38:43.946Z,10.63
2022-12-18T06:41:12.552Z,10.73
2022-12-18T06:43:39.475Z,10.17
2022-12-18T06:46:06.843Z,9.77
2022-12-18T06:48:34.103Z,12.37
2022-12-18T06:51:00.849Z,11.07
2022-12-18T06:53:27.629Z,11.37
2022-12-18T06:56:05.111Z,11.87
2022-12-18T06:58:34.617Z,12.10
2022-12-18T07:01:02.419Z,11.17
2022-12-18T07:03:29.126Z,12.90
2022-12-18T07:05:55.770Z,11.43
2022-12-18T07:08:22.627Z,11.23
2022-12-18T07:10:56.026Z,10.67
2022-12-18T07:13:23.707Z,12.43
2022-12-18T07:15:50.417Z,11.37
2022-12-18T07:18:17.027Z,14.67
2022-12-18T07:20:43.644Z,13.07
2022-12-18T07:23:10.261Z,11.77
2022-12-18T07:25:37.861Z,14.27
2022-12-18T07:28:05.280Z,14.53
2022-12-18T07:30:32.227Z,12.37
2022-12-18T07:32:58.836Z,13.70
2022-12-18T07:35:25.671Z,14.50
2022-12-18T07:37:52.428Z,13.40
2022-12-18T07:40:19.188Z,12.77
2022-12-18T07:42:45.763Z,13.27
2022-12-18T07:45:12.417Z,12.67
2022-12-18T07:47:39.247Z,15.03
2022-12-18T07:50:06.683Z,16.23
2022-12-18T07:52:33.332Z,13.73
2022-12-18T07:55:00.589Z,13.97
2022-12-18T07:57:52.541Z,14.30
2022-12-18T08:00:14.517Z,11.87
2022-12-18T08:02:41.309Z,14.30
2022-12-18T08:05:09.414Z,14.77
2022-12-18T08:07:36.054Z,13.87
2022-12-18T08:10:02.758Z,14.40
2022-12-18T08:12:30.689Z,15.53
2022-12-18T08:14:57.319Z,12.37
2022-12-18T08:17:23.984Z,14.50
2022-12-18T08:19:50.679Z,12.83
2022-12-18T08:22:17.300Z,15.77
2022-12-18T08:24:44.024Z,12.07
2022-12-18T08:27:28.766Z,14.43
2022-12-18T08:29:56.639Z,16.93
2022-12-18T08:32:23.637Z,14.50
2022-12-18T08:34:50.243Z,14.27
2022-12-18T08:37:16.831Z,13.10
2022-12-18T08:39:43.479Z,16.40
2022-12-18T08:42:29.051Z,15.53
2022-12-18T08:44:55.909Z,14.73
2022-12-18T08:47:22.538Z,15.10
2022-12-18T08:49:49.303Z,15.90
2022-12-18T08:52:16.016Z,13.83
2022-12-18T08:54:42.616Z,16.90
2022-12-18T08:57:09.276Z,18.00
2022-12-18T08:59:36.156Z,14.77
2022-12-18T09:02:05.240Z,15.23
2022-12-18T09:04:32.059Z,16.30
2022-12-18T09:06:58.700Z,14.37
2022-12-18T09:09:25.361Z,16.47
2022-12-18T09:11:53.374Z,16.90
2022-12-18T09:14:20.156Z,14.90
2022-12-18T09:16:46.806Z,15.80
2022-12-18T09:19:13.509Z,18.90
2022-12-18T09:21:47.820Z,14.43
2022-12-18T09:24:15.554Z,13.67
2022-12-18T09:26:47.563Z,14.60
2022-12-18T09:29:15.446Z,13.53
2022-12-18T09:31:42.845Z,14.17
2022-12-18T09:34:09.483Z,14.80
2022-12-18T09:36:36.220Z,13.23
2022-12-18T09:39:08.278Z,15.33
2022-12-18T09:41:59.289Z,13.53
2022-12-18T09:44:45.078Z,14.77
2022-12-18T09:47:40.099Z,14.50
2022-12-18T09:50:35.682Z,14.87
2022-12-18T09:53:14.421Z,13.57
2022-12-18T09:55:43.515Z,13.40
2022-12-18T09:58:10.839Z,14.00
2022-12-18T10:00:37.485Z,13.53
2022-12-18T10:03:13.859Z,16.10
2022-12-18T10:06:00.377Z,13.43
2022-12-18T10:08:45.580Z,14.23
2022-12-18T10:11:49.781Z,15.03
2022-12-18T10:14:29.450Z,17.07
2022-12-18T10:17:00.573Z,16.27
2022-12-18T10:19:50.112Z,17.13
2022-12-18T10:22:25.338Z,15.47
2022-12-18T10:24:56.865Z,15.97
2022-12-18T10:27:27.538Z,18.60
2022-12-18T10:29:55.523Z,13.63
2022-12-18T10:32:25.937Z,16.33
2022-12-18T10:35:00.097Z,15.13
2022-12-18T10:37:30.201Z,14.10
2022-12-18T10:40:13.255Z,15.87
2022-12-18T10:42:44.939Z,14.93
2022-12-18T10:45:18.572Z,15.63
2022-12-18T10:47:48.656Z,17.80
2022-12-18T10:51:08.679Z,15.80
2022-12-18T10:53:28.522Z,15.00
2022-12-18T10:55:59.357Z,18.70
2022-12-18T10:58:39.425Z,17.13
2022-12-18T11:01:23.868Z,17.70
2022-12-18T11:04:01.848Z,13.77
2022-12-18T11:06:29.182Z,16.13
2022-12-18T11:09:13.301Z,14.47
2022-12-18T11:11:54.317Z,16.43
2022-12-18T11:14:29.765Z,17.87
2022-12-18T11:20:14.232Z,16.23
2022-12-18T11:22:41.117Z,17.40
2022-12-18T11:25:35.980Z,14.30
2022-12-18T11:28:26.467Z,14.40
2022-12-18T11:31:14.393Z,15.80
2022-12-18T11:34:04.915Z,15.23
2022-12-18T11:36:39.188Z,16.27
2022-12-18T11:39:15.101Z,16.63
2022-12-18T11:42:12.650Z,16.27
2022-12-18T11:44:53.816Z,16.33
2022-12-18T11:47:42.211Z,15.00
2022-12-18T11:50:24.648Z,17.13
2022-12-18T11:52:57.328Z,16.43
2022-12-18T11:55:40.713Z,16.93
2022-12-18T11:58:32.799Z,16.40
2022-12-18T12:01:19.469Z,20.23
2022-12-18T12:03:50.527Z,15.83
2022-12-18T12:06:21.742Z,18.57
2022-12-18T12:09:05.217Z,16.90
2022-12-18T12:11:52.735Z,17.63
2022-12-18T12:14:47.691Z,15.37
2022-12-18T12:17:53.802Z,16.70
2022-12-18T12:20:32.481Z,16.67
2022-12-18T12:23:16.076Z,19.27
2022-12-18T12:25:53.426Z,18.60
2022-12-18T12:28:39.096Z,15.97
2022-12-18T12:31:34.715Z,18.13
2022-12-18T12:34:13.930Z,15.93
2022-12-18T12:36:50.556Z,17.07
2022-12-18T12:39:21.673Z,20.40
2022-12-18T12:42:07.512Z,17.93
2022-12-18T12:44:43.905Z,16.77
2022-12-18T12:47:21.664Z,19.73
2022-12-18T12:49:51.639Z,17.90
2022-12-18T12:52:38.279Z,18.20
2022-12-18T12:55:13.064Z,16.33
2022-12-18T12:57:47.585Z,18.03
2022-12-18T13:00:17.984Z,19.97
2022-12-18T13:03:10.030Z,20.00
2022-12-18T13:05:51.528Z,21.13
2022-12-18T13:08:45.766Z,20.77
2022-12-18T13:11:59.476Z,20.30
2022-12-18T13:19:02.768Z,17.00
2022-12-18T13:21:41.731Z,19.47
2022-12-18T13:24:31.728Z,21.80
2022-12-18T13:26:58.535Z,19.63
2022-12-18T13:29:45.998Z,18.87
2022-12-18T13:32:26.230Z,19.47
2022-12-18T13:35:22.687Z,19.53
2022-12-18T13:37:54.075Z,19.00
2022-12-18T13:40:40.240Z,16.27
2022-12-18T13:43:43.722Z,19.37
2022-12-18T13:46:30.192Z,18.87
2022-12-18T13:49:03.609Z,20.43
2022-12-18T13:51:32.756Z,22.60
2022-12-18T13:54:02.819Z,20.50
2022-12-18T13:56:33.668Z,19.93
2022-12-18T13:59:19.522Z,19.73
2022-12-18T14:01:59.034Z,22.97
2022-12-18T14:04:34.598Z,19.80
2022-12-18T14:07:07.700Z,21.10
2022-12-18T14:09:44.592Z,23.17
2022-12-18T14:12:38.048Z,21.43
2022-12-18T14:15:12.163Z,20.40
2022-12-18T14:17:40.432Z,22.43
2022-12-18T14:20:15.790Z,20.97
2022-12-18T14:22:47.683Z,20.97
2022-12-18T14:25:14.242Z,22.37
2022-12-18T14:28:07.072Z,22.20
2022-12-18T14:30:38.001Z,22.83
2022-12-18T14:33:09.458Z,25.40
2022-12-18T14:35:52.874Z,24.90
2022-12-18T14:38:28.605Z,25.63
2022-12-18T14:41:00.339Z,25.03
2022-12-18T14:43:29.215Z,26.77
2022-12-18T14:45:57.212Z,24.03
2022-12-18T14:48:48.397Z,24.00
2022-12-18T14:51:24.430Z,26.03
2022-12-18T14:54:04.674Z,25.67
2022-12-18T14:56:44.427Z,22.87
2022-12-18T14:59:23.830Z,22.60
2022-12-18T15:02:12.520Z,24.77
2022-12-18T15:04:43.009Z,26.83
2022-12-18T15:07:19.996Z,24.73
2022-12-18T15:10:12.524Z,24.70
2022-12-18T15:12:47.974Z,26.03
2022-12-18T15:15:48.290Z,25.47
2022-12-18T15:18:21.978Z,29.67
2022-12-18T15:20:53.062Z,25.37
2022-12-18T15:23:37.609Z,23.97
2022-12-18T15:26:07.664Z,24.17
2022-12-18T15:28:52.726Z,25.57
2022-12-18T15:31:32.656Z,26.30
2022-12-18T15:34:00.408Z,25.87
2022-12-18T15:36:31.001Z,26.07
2022-12-18T15:39:04.863Z,25.40
2022-12-18T15:41:35.251Z,24.97
2022-12-18T15:44:04.636Z,25.17
2022-12-18T15:46:31.881Z,27.13
2022-12-18T15:49:02.217Z,25.63
2022-12-18T15:51:38.926Z,23.93
2022-12-18T15:54:10.359Z,26.50
2022-12-18T15:56:57.563Z,24.20
2022-12-18T15:59:25.329Z,25.53
2022-12-18T16:01:55.972Z,27.07
2022-12-18T16:04:23.518Z,24.77
2022-12-18T16:07:13.771Z,27.97
2022-12-18T16:09:38.028Z,24.80
2022-12-18T16:12:05.838Z,31.13
2022-12-18T16:14:33.442Z,27.03
2022-12-18T16:17:06.228Z,26.00
2022-12-18T16:19:32.954Z,28.33
2022-12-18T16:21:59.898Z,24.00
2022-12-18T16:24:32.478Z,25.90
2022-12-18T16:27:00.801Z,29.87
2022-12-18T16:29:29.519Z,26.97
2022-12-18T16:32:00.461Z,23.47
2022-12-18T16:34:35.688Z,24.63
2022-12-18T16:37:06.334Z,25.97
2022-12-18T16:39:35.169Z,22.60
2022-12-18T16:42:05.577Z,23.47
2022-12-18T16:44:36.383Z,26.67
2022-12-18T16:47:04.301Z,26.77
2022-12-18T16:49:31.544Z,24.90
2022-12-18T16:51:58.294Z,24.70
2022-12-18T16:54:30.310Z,25.53
2022-12-18T16:56:57.728Z,22.10
2022-12-18T16:59:26.666Z,24.10
2022-12-18T17:01:53.847Z,23.87
2022-12-18T17:04:20.574Z,23.33
2022-12-18T17:06:51.736Z,22.63
2022-12-18T17:09:25.813Z,21.80
2022-12-18T17:11:53.986Z,20.87
2022-12-18T17:14:23.869Z,20.20
2022-12-18T17:17:07.448Z,21.53
2022-12-18T17:19:38.461Z,21.47
2022-12-18T17:22:05.238Z,23.03
2022-12-18T17:24:35.026Z,20.53
2022-12-18T17:27:02.314Z,19.10
2022-12-18T17:29:29.091Z,21.43
2022-12-18T17:31:55.730Z,20.70
2022-12-18T17:34:24.064Z,19.37
2022-12-18T17:36:50.679Z,19.83
2022-12-18T17:39:19.510Z,18.20
2022-12-18T17:41:46.560Z,19.33
2022-12-18T17:44:13.528Z,19.87
2022-12-18T17:46:43.519Z,20.00
2022-12-18T17:49:10.729Z,20.80
2022-12-18T17:51:37.701Z,18.67
2022-12-18T17:54:05.274Z,20.80
2022-12-18T17:56:38.856Z,19.83
2022-12-18T17:59:07.000Z,19.73
2022-12-18T18:01:42.559Z,17.90
2022-12-18T18:04:11.229Z,20.33
2022-12-18T18:06:39.239Z,17.47
2022-12-18T18:09:08.165Z,16.70
2022-12-18T18:12:01.688Z,18.50
2022-12-18T18:14:28.421Z,19.77
2022-12-18T18:16:55.101Z,17.30
2022-12-18T18:19:24.762Z,17.93
2022-12-18T18:21:53.614Z,18.13
2022-12-18T18:24:23.486Z,15.40
2022-12-18T18:26:50.341Z,16.00
2022-12-18T18:29:26.636Z,15.63
2022-12-18T18:31:54.552Z,16.43
2022-12-18T18:34:24.410Z,18.37
2022-12-18T18:36:54.196Z,15.53
2022-12-18T18:39:23.638Z,16.33
2022-12-18T18:41:50.598Z,16.90
2022-12-18T18:44:20.523Z,15.03
2022-12-18T18:46:52.944Z,15.30
2022-12-18T18:49:21.288Z,16.37
2022-12-18T18:51:50.458Z,15.87
2022-12-18T18:54:17.144Z,16.57
2022-12-18T18:59:32.433Z,13.90
2022-12-18T19:02:00.734Z,14.93
2022-12-18T19:04:32.952Z,14.70
2022-12-18T19:07:05.499Z,12.97
2022-12-18T19:09:36.195Z,13.63
2022-12-18T19:12:38.728Z,15.17
2022-12-18T19:15:07.441Z,13.03
2022-12-18T19:17:34.317Z,15.27
2022-12-18T19:20:02.192Z,14.57
2022-12-18T19:22:28.772Z,14.13
2022-12-18T19:24:55.354Z,19.37
2022-12-18T19:27:22.092Z,17.27
2022-12-18T19:29:50.479Z,16.87
2022-12-18T19:32:17.160Z,14.53
2022-12-18T19:34:44.878Z,16.33
2022-12-18T19:37:13.677Z,15.07
2022-12-18T19:39:40.443Z,16.43
2022-12-18T19:42:07.020Z,14.13
2022-12-18T19:44:33.671Z,14.90
2022-12-18T19:47:00.304Z,14.43
2022-12-18T19:49:26.924Z,17.20
2022-12-18T19:51:53.835Z,16.70
2022-12-18T19:54:20.501Z,15.80
2022-12-18T19:56:47.199Z,16.23
2022-12-18T19:59:13.947Z,16.77
2022-12-18T20:01:40.784Z,16.17
2022-12-18T20:04:07.750Z,17.60
2022-12-18T20:06:56.352Z,16.57
2022-12-18T20:09:23.299Z,16.97
2022-12-18T20:11:53.218Z,15.57
2022-12-18T20:14:23.021Z,18.60
2022-12-18T20:16:51.176Z,21.57
2022-12-18T20:19:18.465Z,19.43
2022-12-18T20:21:45.833Z,17.13
2022-12-18T20:24:12.868Z,16.93
2022-12-18T20:26:40.413Z,18.07
2022-12-18T20:29:07.130Z,18.60
2022-12-18T20:31:33.787Z,17.83
2022-12-18T20:34:02.777Z,18.13
2022-12-18T20:36:32.822Z,18.37
2022-12-18T20:39:02.606Z,19.37
2022-12-18T20:41:38.425Z,18.93
2022-12-18T20:44:21.892Z,18.67
2022-12-18T20:47:03.148Z,20.20
2022-12-18T20:49:35.424Z,19.03
2022-12-18T20:52:02.998Z,18.20
2022-12-18T20:54:29.763Z,19.60
2022-12-18T20:56:57.018Z,18.43
2022-12-18T20:59:25.503Z,20.93
2022-12-18T21:01:55.669Z,19.00
2022-12-18T21:04:24.500Z,18.17
2022-12-18T21:06:55.787Z,19.67
2022-12-18T21:09:27.248Z,20.93
2022-12-18T21:12:14.137Z,19.53
2022-12-18T21:14:41.539Z,18.40
2022-12-18T21:17:08.171Z,17.53
2022-12-18T21:19:34.972Z,19.13
2022-12-18T21:26:27.955Z,17.90
2022-12-18T21:28:56.359Z,23.77
2022-12-18T21:31:24.567Z,19.23
2022-12-18T21:33:51.893Z,20.33
2022-12-18T21:36:22.451Z,18.27
2022-12-18T21:38:49.133Z,20.03
2022-12-18T21:41:41.722Z,22.80
2022-12-18T21:44:12.195Z,22.07
2022-12-18T21:46:41.069Z,21.97
2022-12-18T21:49:09.112Z,20.93
2022-12-18T21:51:36.599Z,20.50
2022-12-18T21:54:04.026Z,21.93
2022-12-18T21:56:53.264Z,21.27
2022-12-18T21:59:23.551Z,21.17
2022-12-18T22:01:51.201Z,20.43
2022-12-18T22:04:19.218Z,19.67
2022-12-18T22:06:46.968Z,23.20
2022-12-18T22:09:18.130Z,19.60
2022-12-18T22:11:45.503Z,22.87
2022-12-18T22:14:13.611Z,20.10
2022-12-18T22:16:40.734Z,19.87
2022-12-18T22:19:10.312Z,21.93
2022-12-18T22:21:40.233Z,23.50
2022-12-18T22:24:10.573Z,21.40
2022-12-18T22:26:40.146Z,19.23
2022-12-18T22:29:26.495Z,18.87
2022-12-18T22:31:53.111Z,19.70
2022-12-18T22:34:23.059Z,22.33
2022-12-18T22:36:50.091Z,21.37
2022-12-18T22:39:23.356Z,19.57
2022-12-18T22:41:51.259Z,19.47
2022-12-18T22:44:18.320Z,20.30
2022-12-18T22:47:05.685Z,21.63
2022-12-18T22:49:35.167Z,20.30
2022-12-18T22:52:03.991Z,18.50
2022-12-18T22:54:30.894Z,20.93
2022-12-18T22:56:57.868Z,20.80
2022-12-18T22:59:24.874Z,22.43
2022-12-18T23:01:54.293Z,20.00
2022-12-18T23:04:28.510Z,23.10
2022-12-18T23:07:02.661Z,20.93
2022-12-18T23:09:29.356Z,20.97
2022-12-18T23:11:55.981Z,17.83
2022-12-18T23:14:22.567Z,23.93
2022-12-18T23:16:49.424Z,20.33
2022-12-18T23:19:18.810Z,22.30
2022-12-18T23:21:45.452Z,19.97
2022-12-18T23:24:12.119Z,21.47
2022-12-18T23:26:38.715Z,21.87
2022-12-18T23:29:05.560Z,21.43
2022-12-18T23:31:35.007Z,21.37
2022-12-18T23:34:03.852Z,23.53
2022-12-18T23:36:30.686Z,22.10
2022-12-18T23:39:07.547Z,22.50
2022-12-18T23:41:34.245Z,21.57
2022-12-18T23:44:01.137Z,22.53
2022-12-18T23:46:33.121Z,21.70
2022-12-18T23:49:01.880Z,22.10
2022-12-18T23:51:29.407Z,22.43
2022-12-18T23:53:59.204Z,28.53
2022-12-18T23:56:27.280Z,21.30
2022-12-18T23:58:54.121Z,21.03
